sensor_id;sensor_type;location;lat;lon;timestamp;temperature;humidity
81222;DHT22;70691;52.492;13.420;2023-08-20T00:01:25;27.60;54.40
81222;DHT22;70691;52.492;13.420;2023-08-20T00:03:51;27.60;54.10
81222;DHT22;70691;52.492;13.420;2023-08-20T00:06:18;27.60;53.90
81222;DHT22;70691;52.492;13.420;2023-08-20T00:08:45;27.70;54.00
81222;DHT22;70691;52.492;13.420;2023-08-20T00:11:11;27.60;54.00
81222;DHT22;70691;52.492;13.420;2023-08-20T00:13:37;27.50;54.30
81222;DHT22;70691;52.492;13.420;2023-08-20T00:16:03;27.50;54.50
81222;DHT22;70691;52.492;13.420;2023-08-20T00:18:29;27.50;54.40
81222;DHT22;70691;52.492;13.420;2023-08-20T00:20:55;27.50;54.40
81222;DHT22;70691;52.492;13.420;2023-08-20T00:23:21;27.50;54.50
81222;DHT22;70691;52.492;13.420;2023-08-20T00:25:47;27.50;54.50
81222;DHT22;70691;52.492;13.420;2023-08-20T00:28:12;27.50;54.30
81222;DHT22;70691;52.492;13.420;2023-08-20T00:30:39;27.40;54.30
81222;DHT22;70691;52.492;13.420;2023-08-20T00:33:04;27.40;54.50
81222;DHT22;70691;52.492;13.420;2023-08-20T00:35:30;27.30;54.40
81222;DHT22;70691;52.492;13.420;2023-08-20T00:37:56;27.40;54.30
81222;DHT22;70691;52.492;13.420;2023-08-20T00:40:22;27.40;54.10
81222;DHT22;70691;52.492;13.420;2023-08-20T00:42:48;27.40;54.20
81222;DHT22;70691;52.492;13.420;2023-08-20T00:45:13;27.30;54.20
81222;DHT22;70691;52.492;13.420;2023-08-20T00:47:40;27.30;55.50
81222;DHT22;70691;52.492;13.420;2023-08-20T00:50:06;27.30;54.50
81222;DHT22;70691;52.492;13.420;2023-08-20T00:52:33;27.30;54.30
81222;DHT22;70691;52.492;13.420;2023-08-20T00:55:03;27.20;54.50
81222;DHT22;70691;52.492;13.420;2023-08-20T00:57:30;27.20;54.40
81222;DHT22;70691;52.492;13.420;2023-08-20T00:59:56;27.20;54.30
81222;DHT22;70691;52.492;13.420;2023-08-20T01:02:22;27.30;54.50
81222;DHT22;70691;52.492;13.420;2023-08-20T01:04:49;27.30;54.40
81222;DHT22;70691;52.492;13.420;2023-08-20T01:07:26;27.30;54.50
81222;DHT22;70691;52.492;13.420;2023-08-20T01:10:00;27.30;54.40
81222;DHT22;70691;52.492;13.420;2023-08-20T01:12:29;27.20;54.40
81222;DHT22;70691;52.492;13.420;2023-08-20T01:14:56;27.20;54.80
81222;DHT22;70691;52.492;13.420;2023-08-20T01:17:22;27.30;54.90
81222;DHT22;70691;52.492;13.420;2023-08-20T01:19:49;27.30;55.40
81222;DHT22;70691;52.492;13.420;2023-08-20T01:28:25;27.50;56.30
81222;DHT22;70691;52.492;13.420;2023-08-20T01:30:55;27.50;56.50
81222;DHT22;70691;52.492;13.420;2023-08-20T01:33:22;27.40;56.80
81222;DHT22;70691;52.492;13.420;2023-08-20T01:35:49;27.40;57.00
81222;DHT22;70691;52.492;13.420;2023-08-20T01:38:15;27.30;57.70
81222;DHT22;70691;52.492;13.420;2023-08-20T01:40:41;27.30;57.80
81222;DHT22;70691;52.492;13.420;2023-08-20T01:43:06;27.20;58.50
81222;DHT22;70691;52.492;13.420;2023-08-20T01:45:33;27.10;58.80
81222;DHT22;70691;52.492;13.420;2023-08-20T01:47:59;27.00;59.20
81222;DHT22;70691;52.492;13.420;2023-08-20T01:50:25;26.90;59.60
81222;DHT22;70691;52.492;13.420;2023-08-20T01:52:51;26.80;59.90
81222;DHT22;70691;52.492;13.420;2023-08-20T01:55:16;26.80;60.20
81222;DHT22;70691;52.492;13.420;2023-08-20T01:57:42;26.80;59.90
81222;DHT22;70691;52.492;13.420;2023-08-20T02:00:08;26.60;60.70
81222;DHT22;70691;52.492;13.420;2023-08-20T02:02:34;26.70;60.50
81222;DHT22;70691;52.492;13.420;2023-08-20T02:05:00;26.70;60.40
81222;DHT22;70691;52.492;13.420;2023-08-20T02:07:26;26.50;61.10
81222;DHT22;70691;52.492;13.420;2023-08-20T02:09:52;26.40;61.80
81222;DHT22;70691;52.492;13.420;2023-08-20T02:12:18;26.40;61.60
81222;DHT22;70691;52.492;13.420;2023-08-20T02:14:43;26.40;61.40
81222;DHT22;70691;52.492;13.420;2023-08-20T02:17:09;26.40;61.70
81222;DHT22;70691;52.492;13.420;2023-08-20T02:19:35;26.30;62.00
81222;DHT22;70691;52.492;13.420;2023-08-20T02:22:00;26.30;62.30
81222;DHT22;70691;52.492;13.420;2023-08-20T02:24:26;26.20;62.80
81222;DHT22;70691;52.492;13.420;2023-08-20T02:26:52;26.40;62.00
81222;DHT22;70691;52.492;13.420;2023-08-20T02:29:19;26.50;61.50
81222;DHT22;70691;52.492;13.420;2023-08-20T02:31:45;26.50;61.60
81222;DHT22;70691;52.492;13.420;2023-08-20T02:34:10;26.30;62.30
81222;DHT22;70691;52.492;13.420;2023-08-20T02:36:36;26.30;62.50
81222;DHT22;70691;52.492;13.420;2023-08-20T02:39:03;26.30;62.60
81222;DHT22;70691;52.492;13.420;2023-08-20T02:41:35;26.30;62.40
81222;DHT22;70691;52.492;13.420;2023-08-20T02:44:04;26.20;63.10
81222;DHT22;70691;52.492;13.420;2023-08-20T02:46:30;26.20;62.90
81222;DHT22;70691;52.492;13.420;2023-08-20T02:48:55;26.20;62.90
81222;DHT22;70691;52.492;13.420;2023-08-20T02:51:21;26.20;63.10
81222;DHT22;70691;52.492;13.420;2023-08-20T02:53:47;26.10;63.20
81222;DHT22;70691;52.492;13.420;2023-08-20T02:56:12;26.00;63.80
81222;DHT22;70691;52.492;13.420;2023-08-20T02:58:39;25.90;64.00
81222;DHT22;70691;52.492;13.420;2023-08-20T03:01:05;25.90;65.00
81222;DHT22;70691;52.492;13.420;2023-08-20T03:03:30;25.80;64.00
81222;DHT22;70691;52.492;13.420;2023-08-20T03:05:56;25.80;64.20
81222;DHT22;70691;52.492;13.420;2023-08-20T03:08:22;25.80;63.90
81222;DHT22;70691;52.492;13.420;2023-08-20T03:10:47;25.80;64.20
81222;DHT22;70691;52.492;13.420;2023-08-20T03:13:13;25.80;64.30
81222;DHT22;70691;52.492;13.420;2023-08-20T03:15:39;25.90;63.70
81222;DHT22;70691;52.492;13.420;2023-08-20T03:18:05;25.90;63.40
81222;DHT22;70691;52.492;13.420;2023-08-20T03:20:31;25.80;63.70
81222;DHT22;70691;52.492;13.420;2023-08-20T03:22:57;25.80;63.80
81222;DHT22;70691;52.492;13.420;2023-08-20T03:25:23;25.70;64.40
81222;DHT22;70691;52.492;13.420;2023-08-20T03:27:51;25.50;65.10
81222;DHT22;70691;52.492;13.420;2023-08-20T03:30:18;25.40;65.70
81222;DHT22;70691;52.492;13.420;2023-08-20T03:32:44;25.30;65.90
81222;DHT22;70691;52.492;13.420;2023-08-20T03:35:09;25.40;65.70
81222;DHT22;70691;52.492;13.420;2023-08-20T03:37:36;25.20;66.20
81222;DHT22;70691;52.492;13.420;2023-08-20T03:40:02;25.20;66.30
81222;DHT22;70691;52.492;13.420;2023-08-20T03:42:30;25.50;65.40
81222;DHT22;70691;52.492;13.420;2023-08-20T03:44:56;25.50;64.90
81222;DHT22;70691;52.492;13.420;2023-08-20T03:47:21;25.60;64.60
81222;DHT22;70691;52.492;13.420;2023-08-20T03:49:47;25.50;65.10
81222;DHT22;70691;52.492;13.420;2023-08-20T03:52:13;25.30;65.90
81222;DHT22;70691;52.492;13.420;2023-08-20T03:54:39;25.30;65.70
81222;DHT22;70691;52.492;13.420;2023-08-20T03:57:05;25.40;65.30
81222;DHT22;70691;52.492;13.420;2023-08-20T03:59:30;25.20;66.20
81222;DHT22;70691;52.492;13.420;2023-08-20T04:01:57;25.10;66.60
81222;DHT22;70691;52.492;13.420;2023-08-20T04:04:22;25.10;66.60
81222;DHT22;70691;52.492;13.420;2023-08-20T04:06:49;25.10;67.00
81222;DHT22;70691;52.492;13.420;2023-08-20T04:09:15;24.90;67.50
81222;DHT22;70691;52.492;13.420;2023-08-20T04:11:42;25.00;67.20
81222;DHT22;70691;52.492;13.420;2023-08-20T04:14:09;25.00;67.20
81222;DHT22;70691;52.492;13.420;2023-08-20T04:16:34;25.20;66.90
81222;DHT22;70691;52.492;13.420;2023-08-20T04:19:00;25.00;67.20
81222;DHT22;70691;52.492;13.420;2023-08-20T04:21:26;24.90;67.90
81222;DHT22;70691;52.492;13.420;2023-08-20T04:23:51;24.90;67.70
81222;DHT22;70691;52.492;13.420;2023-08-20T04:26:17;24.90;68.10
81222;DHT22;70691;52.492;13.420;2023-08-20T04:28:42;24.90;67.90
81222;DHT22;70691;52.492;13.420;2023-08-20T04:31:08;25.00;67.30
81222;DHT22;70691;52.492;13.420;2023-08-20T04:33:34;25.10;66.90
81222;DHT22;70691;52.492;13.420;2023-08-20T04:35:59;25.00;67.20
81222;DHT22;70691;52.492;13.420;2023-08-20T04:38:26;25.00;67.50
81222;DHT22;70691;52.492;13.420;2023-08-20T04:40:51;25.10;67.30
81222;DHT22;70691;52.492;13.420;2023-08-20T04:43:17;25.20;66.70
81222;DHT22;70691;52.492;13.420;2023-08-20T04:45:42;25.20;66.90
81222;DHT22;70691;52.492;13.420;2023-08-20T04:48:08;25.20;66.70
81222;DHT22;70691;52.492;13.420;2023-08-20T04:50:34;25.00;67.40
81222;DHT22;70691;52.492;13.420;2023-08-20T04:53:00;25.00;67.90
81222;DHT22;70691;52.492;13.420;2023-08-20T04:55:26;24.90;68.10
81222;DHT22;70691;52.492;13.420;2023-08-20T04:57:52;25.00;68.20
81222;DHT22;70691;52.492;13.420;2023-08-20T05:00:17;25.30;67.00
81222;DHT22;70691;52.492;13.420;2023-08-20T05:02:43;25.30;66.70
81222;DHT22;70691;52.492;13.420;2023-08-20T05:05:10;25.00;67.80
81222;DHT22;70691;52.492;13.420;2023-08-20T05:07:35;24.90;68.70
81222;DHT22;70691;52.492;13.420;2023-08-20T05:10:01;24.90;68.60
81222;DHT22;70691;52.492;13.420;2023-08-20T05:12:28;24.90;68.80
81222;DHT22;70691;52.492;13.420;2023-08-20T05:14:53;25.10;68.10
81222;DHT22;70691;52.492;13.420;2023-08-20T05:17:19;25.00;68.50
81222;DHT22;70691;52.492;13.420;2023-08-20T05:19:45;25.00;69.10
81222;DHT22;70691;52.492;13.420;2023-08-20T05:22:11;25.10;68.00
81222;DHT22;70691;52.492;13.420;2023-08-20T05:24:38;25.20;67.70
81222;DHT22;70691;52.492;13.420;2023-08-20T05:29:30;25.20;68.10
81222;DHT22;70691;52.492;13.420;2023-08-20T05:31:56;25.40;67.00
81222;DHT22;70691;52.492;13.420;2023-08-20T05:34:21;25.40;67.00
81222;DHT22;70691;52.492;13.420;2023-08-20T05:36:47;25.10;68.00
81222;DHT22;70691;52.492;13.420;2023-08-20T05:39:13;25.00;68.70
81222;DHT22;70691;52.492;13.420;2023-08-20T05:41:38;25.20;67.60
81222;DHT22;70691;52.492;13.420;2023-08-20T05:44:04;25.30;67.70
81222;DHT22;70691;52.492;13.420;2023-08-20T05:46:30;25.40;66.90
81222;DHT22;70691;52.492;13.420;2023-08-20T05:48:55;25.50;66.90
81222;DHT22;70691;52.492;13.420;2023-08-20T05:51:21;25.50;66.50
81222;DHT22;70691;52.492;13.420;2023-08-20T05:53:47;25.60;66.10
81222;DHT22;70691;52.492;13.420;2023-08-20T05:56:12;25.60;67.00
81222;DHT22;70691;52.492;13.420;2023-08-20T05:58:38;25.60;66.00
81222;DHT22;70691;52.492;13.420;2023-08-20T06:01:03;25.40;67.10
81222;DHT22;70691;52.492;13.420;2023-08-20T06:03:29;25.50;66.40
81222;DHT22;70691;52.492;13.420;2023-08-20T06:05:57;25.40;66.60
81222;DHT22;70691;52.492;13.420;2023-08-20T06:08:23;25.40;66.70
81222;DHT22;70691;52.492;13.420;2023-08-20T06:10:48;25.50;66.20
81222;DHT22;70691;52.492;13.420;2023-08-20T06:13:14;25.50;66.40
81222;DHT22;70691;52.492;13.420;2023-08-20T06:15:39;25.50;65.80
81222;DHT22;70691;52.492;13.420;2023-08-20T06:18:05;25.50;66.10
81222;DHT22;70691;52.492;13.420;2023-08-20T06:20:31;25.40;66.40
81222;DHT22;70691;52.492;13.420;2023-08-20T06:22:56;25.20;67.00
81222;DHT22;70691;52.492;13.420;2023-08-20T06:25:22;25.30;67.00
81222;DHT22;70691;52.492;13.420;2023-08-20T06:27:48;25.40;66.70
81222;DHT22;70691;52.492;13.420;2023-08-20T06:30:13;25.40;66.80
81222;DHT22;70691;52.492;13.420;2023-08-20T06:32:39;25.20;67.10
81222;DHT22;70691;52.492;13.420;2023-08-20T06:35:05;25.20;67.60
81222;DHT22;70691;52.492;13.420;2023-08-20T06:37:31;25.30;66.90
81222;DHT22;70691;52.492;13.420;2023-08-20T06:39:56;25.50;65.90
81222;DHT22;70691;52.492;13.420;2023-08-20T06:42:22;25.50;66.20
81222;DHT22;70691;52.492;13.420;2023-08-20T06:44:47;25.50;65.90
81222;DHT22;70691;52.492;13.420;2023-08-20T06:47:13;25.60;65.50
81222;DHT22;70691;52.492;13.420;2023-08-20T06:49:40;25.60;65.20
81222;DHT22;70691;52.492;13.420;2023-08-20T06:52:06;25.70;65.10
81222;DHT22;70691;52.492;13.420;2023-08-20T06:54:31;25.40;66.00
81222;DHT22;70691;52.492;13.420;2023-08-20T06:56:57;25.50;65.30
81222;DHT22;70691;52.492;13.420;2023-08-20T06:59:23;25.50;65.50
81222;DHT22;70691;52.492;13.420;2023-08-20T07:01:49;25.40;66.20
81222;DHT22;70691;52.492;13.420;2023-08-20T07:04:14;25.40;66.60
81222;DHT22;70691;52.492;13.420;2023-08-20T07:06:40;25.50;66.40
81222;DHT22;70691;52.492;13.420;2023-08-20T07:09:07;25.80;65.00
81222;DHT22;70691;52.492;13.420;2023-08-20T07:11:35;25.70;65.20
81222;DHT22;70691;52.492;13.420;2023-08-20T07:14:04;25.80;64.60
81222;DHT22;70691;52.492;13.420;2023-08-20T07:16:30;25.80;64.60
81222;DHT22;70691;52.492;13.420;2023-08-20T07:18:56;25.80;65.30
81222;DHT22;70691;52.492;13.420;2023-08-20T07:21:21;25.70;64.80
81222;DHT22;70691;52.492;13.420;2023-08-20T07:23:47;25.80;64.10
81222;DHT22;70691;52.492;13.420;2023-08-20T07:26:12;25.90;63.70
81222;DHT22;70691;52.492;13.420;2023-08-20T07:28:38;25.80;64.20
81222;DHT22;70691;52.492;13.420;2023-08-20T07:31:23;25.60;64.90
81222;DHT22;70691;52.492;13.420;2023-08-20T07:33:49;25.60;65.00
81222;DHT22;70691;52.492;13.420;2023-08-20T07:36:16;25.70;64.90
81222;DHT22;70691;52.492;13.420;2023-08-20T07:38:43;25.80;64.50
81222;DHT22;70691;52.492;13.420;2023-08-20T07:41:10;26.00;63.30
81222;DHT22;70691;52.492;13.420;2023-08-20T07:43:37;26.20;62.20
81222;DHT22;70691;52.492;13.420;2023-08-20T07:46:03;26.00;63.10
81222;DHT22;70691;52.492;13.420;2023-08-20T07:48:29;26.00;63.10
81222;DHT22;70691;52.492;13.420;2023-08-20T07:50:55;26.10;62.50
81222;DHT22;70691;52.492;13.420;2023-08-20T07:53:20;26.10;62.90
81222;DHT22;70691;52.492;13.420;2023-08-20T07:55:46;25.90;63.70
81222;DHT22;70691;52.492;13.420;2023-08-20T07:58:12;25.80;63.40
81222;DHT22;70691;52.492;13.420;2023-08-20T08:00:37;25.80;63.10
81222;DHT22;70691;52.492;13.420;2023-08-20T08:03:03;25.80;63.70
81222;DHT22;70691;52.492;13.420;2023-08-20T08:05:29;25.80;63.40
81222;DHT22;70691;52.492;13.420;2023-08-20T08:07:54;25.70;63.50
81222;DHT22;70691;52.492;13.420;2023-08-20T08:10:20;25.60;64.00
81222;DHT22;70691;52.492;13.420;2023-08-20T08:12:49;25.80;63.70
81222;DHT22;70691;52.492;13.420;2023-08-20T08:15:15;25.80;63.80
81222;DHT22;70691;52.492;13.420;2023-08-20T08:17:41;25.90;63.10
81222;DHT22;70691;52.492;13.420;2023-08-20T08:20:06;25.90;62.80
81222;DHT22;70691;52.492;13.420;2023-08-20T08:22:33;25.90;62.50
81222;DHT22;70691;52.492;13.420;2023-08-20T08:24:58;25.90;62.40
81222;DHT22;70691;52.492;13.420;2023-08-20T08:27:24;26.00;62.50
81222;DHT22;70691;52.492;13.420;2023-08-20T08:29:51;26.10;62.40
81222;DHT22;70691;52.492;13.420;2023-08-20T08:32:16;26.20;61.60
81222;DHT22;70691;52.492;13.420;2023-08-20T08:34:42;26.30;61.30
81222;DHT22;70691;52.492;13.420;2023-08-20T08:37:08;26.20;61.50
81222;DHT22;70691;52.492;13.420;2023-08-20T08:39:36;26.20;61.00
81222;DHT22;70691;52.492;13.420;2023-08-20T08:42:05;26.40;61.60
81222;DHT22;70691;52.492;13.420;2023-08-20T08:44:33;26.40;60.10
81222;DHT22;70691;52.492;13.420;2023-08-20T08:46:59;26.60;60.30
81222;DHT22;70691;52.492;13.420;2023-08-20T08:49:28;26.80;59.40
81222;DHT22;70691;52.492;13.420;2023-08-20T08:52:01;27.00;59.30
81222;DHT22;70691;52.492;13.420;2023-08-20T08:54:35;27.10;58.40
81222;DHT22;70691;52.492;13.420;2023-08-20T08:57:11;27.30;58.60
81222;DHT22;70691;52.492;13.420;2023-08-20T08:59:38;27.40;57.80
81222;DHT22;70691;52.492;13.420;2023-08-20T09:02:08;27.60;57.00
81222;DHT22;70691;52.492;13.420;2023-08-20T09:04:38;27.80;55.90
81222;DHT22;70691;52.492;13.420;2023-08-20T09:07:04;27.90;54.30
81222;DHT22;70691;52.492;13.420;2023-08-20T09:09:30;28.00;55.30
81222;DHT22;70691;52.492;13.420;2023-08-20T09:11:56;28.10;55.20
81222;DHT22;70691;52.492;13.420;2023-08-20T09:14:29;28.40;54.60
81222;DHT22;70691;52.492;13.420;2023-08-20T09:16:59;28.60;53.70
81222;DHT22;70691;52.492;13.420;2023-08-20T09:19:29;28.80;53.00
81222;DHT22;70691;52.492;13.420;2023-08-20T09:22:00;28.90;51.80
81222;DHT22;70691;52.492;13.420;2023-08-20T09:25:00;29.00;51.30
81222;DHT22;70691;52.492;13.420;2023-08-20T09:27:19;28.90;52.10
81222;DHT22;70691;52.492;13.420;2023-08-20T09:29:50;29.00;51.40
81222;DHT22;70691;52.492;13.420;2023-08-20T09:32:21;28.90;51.10
81222;DHT22;70691;52.492;13.420;2023-08-20T09:34:48;28.90;50.80
81222;DHT22;70691;52.492;13.420;2023-08-20T09:37:15;28.90;50.20
81222;DHT22;70691;52.492;13.420;2023-08-20T09:39:41;28.90;50.80
81222;DHT22;70691;52.492;13.420;2023-08-20T09:42:08;28.60;51.30
81222;DHT22;70691;52.492;13.420;2023-08-20T09:44:39;28.60;50.60
81222;DHT22;70691;52.492;13.420;2023-08-20T09:52:09;28.30;52.50
81222;DHT22;70691;52.492;13.420;2023-08-20T09:54:38;28.40;52.70
81222;DHT22;70691;52.492;13.420;2023-08-20T09:57:07;28.50;51.70
81222;DHT22;70691;52.492;13.420;2023-08-20T09:59:46;28.60;51.10
81222;DHT22;70691;52.492;13.420;2023-08-20T10:02:14;28.80;50.50
81222;DHT22;70691;52.492;13.420;2023-08-20T10:04:42;28.90;50.00
81222;DHT22;70691;52.492;13.420;2023-08-20T10:07:09;28.90;50.00
81222;DHT22;70691;52.492;13.420;2023-08-20T10:09:36;29.00;49.40
81222;DHT22;70691;52.492;13.420;2023-08-20T10:12:02;29.20;47.40
81222;DHT22;70691;52.492;13.420;2023-08-20T10:14:28;29.20;47.60
81222;DHT22;70691;52.492;13.420;2023-08-20T10:16:54;29.30;47.60
81222;DHT22;70691;52.492;13.420;2023-08-20T10:19:20;29.20;47.20
81222;DHT22;70691;52.492;13.420;2023-08-20T10:21:45;29.20;46.80
81222;DHT22;70691;52.492;13.420;2023-08-20T10:24:17;29.30;46.30
81222;DHT22;70691;52.492;13.420;2023-08-20T10:26:46;29.40;46.00
81222;DHT22;70691;52.492;13.420;2023-08-20T10:29:35;29.50;44.80
81222;DHT22;70691;52.492;13.420;2023-08-20T10:32:04;29.60;45.60
81222;DHT22;70691;52.492;13.420;2023-08-20T10:34:35;29.40;46.00
81222;DHT22;70691;52.492;13.420;2023-08-20T10:37:27;29.40;45.20
81222;DHT22;70691;52.492;13.420;2023-08-20T10:39:56;29.50;44.60
81222;DHT22;70691;52.492;13.420;2023-08-20T10:42:22;29.70;43.80
81222;DHT22;70691;52.492;13.420;2023-08-20T10:47:24;29.70;44.00
81222;DHT22;70691;52.492;13.420;2023-08-20T10:49:54;29.80;43.00
81222;DHT22;70691;52.492;13.420;2023-08-20T10:52:22;29.60;43.30
81222;DHT22;70691;52.492;13.420;2023-08-20T10:54:50;29.60;43.10
81222;DHT22;70691;52.492;13.420;2023-08-20T10:57:16;29.60;43.20
81222;DHT22;70691;52.492;13.420;2023-08-20T10:59:42;29.50;42.20
81222;DHT22;70691;52.492;13.420;2023-08-20T11:02:12;29.60;42.00
81222;DHT22;70691;52.492;13.420;2023-08-20T11:04:41;29.60;41.80
81222;DHT22;70691;52.492;13.420;2023-08-20T11:07:06;29.40;41.80
81222;DHT22;70691;52.492;13.420;2023-08-20T11:09:33;29.50;42.40
81222;DHT22;70691;52.492;13.420;2023-08-20T11:12:00;29.50;41.70
81222;DHT22;70691;52.492;13.420;2023-08-20T11:14:26;29.40;42.90
81222;DHT22;70691;52.492;13.420;2023-08-20T11:16:52;29.40;42.40
81222;DHT22;70691;52.492;13.420;2023-08-20T11:19:22;29.30;42.90
81222;DHT22;70691;52.492;13.420;2023-08-20T11:21:48;29.30;42.50
81222;DHT22;70691;52.492;13.420;2023-08-20T11:24:14;29.60;41.90
81222;DHT22;70691;52.492;13.420;2023-08-20T11:26:41;29.60;42.30
81222;DHT22;70691;52.492;13.420;2023-08-20T11:29:07;29.60;43.00
81222;DHT22;70691;52.492;13.420;2023-08-20T11:31:34;29.60;41.70
81222;DHT22;70691;52.492;13.420;2023-08-20T11:34:02;29.80;41.20
81222;DHT22;70691;52.492;13.420;2023-08-20T11:36:28;29.80;41.30
81222;DHT22;70691;52.492;13.420;2023-08-20T11:38:54;29.80;41.00
81222;DHT22;70691;52.492;13.420;2023-08-20T11:41:20;29.90;40.10
81222;DHT22;70691;52.492;13.420;2023-08-20T11:43:47;30.10;39.60
81222;DHT22;70691;52.492;13.420;2023-08-20T11:46:13;30.00;40.70
81222;DHT22;70691;52.492;13.420;2023-08-20T11:49:06;30.00;40.50
81222;DHT22;70691;52.492;13.420;2023-08-20T11:51:40;30.30;38.90
81222;DHT22;70691;52.492;13.420;2023-08-20T11:54:09;30.30;39.70
81222;DHT22;70691;52.492;13.420;2023-08-20T11:56:35;30.30;39.90
81222;DHT22;70691;52.492;13.420;2023-08-20T11:59:01;30.30;40.10
81222;DHT22;70691;52.492;13.420;2023-08-20T12:01:31;30.30;40.40
81222;DHT22;70691;52.492;13.420;2023-08-20T12:04:04;30.40;40.50
81222;DHT22;70691;52.492;13.420;2023-08-20T12:06:30;30.60;39.90
81222;DHT22;70691;52.492;13.420;2023-08-20T12:09:00;30.60;39.80
81222;DHT22;70691;52.492;13.420;2023-08-20T12:11:29;30.50;39.30
81222;DHT22;70691;52.492;13.420;2023-08-20T12:13:55;30.70;38.70
81222;DHT22;70691;52.492;13.420;2023-08-20T12:16:22;30.70;39.10
81222;DHT22;70691;52.492;13.420;2023-08-20T12:18:49;30.60;39.30
81222;DHT22;70691;52.492;13.420;2023-08-20T12:21:15;30.70;38.50
81222;DHT22;70691;52.492;13.420;2023-08-20T12:23:41;30.50;39.60
81222;DHT22;70691;52.492;13.420;2023-08-20T12:26:07;30.40;39.60
81222;DHT22;70691;52.492;13.420;2023-08-20T12:28:35;30.50;39.20
81222;DHT22;70691;52.492;13.420;2023-08-20T12:31:01;30.70;39.30
81222;DHT22;70691;52.492;13.420;2023-08-20T12:33:28;30.90;38.20
81222;DHT22;70691;52.492;13.420;2023-08-20T12:35:55;30.80;38.50
81222;DHT22;70691;52.492;13.420;2023-08-20T12:38:21;30.90;37.40
81222;DHT22;70691;52.492;13.420;2023-08-20T12:40:47;30.90;37.20
81222;DHT22;70691;52.492;13.420;2023-08-20T12:43:12;30.70;38.80
81222;DHT22;70691;52.492;13.420;2023-08-20T12:45:38;30.60;36.90
81222;DHT22;70691;52.492;13.420;2023-08-20T12:48:04;30.60;37.00
81222;DHT22;70691;52.492;13.420;2023-08-20T12:50:30;30.70;36.40
81222;DHT22;70691;52.492;13.420;2023-08-20T12:52:56;30.70;36.50
81222;DHT22;70691;52.492;13.420;2023-08-20T12:55:22;30.70;36.70
81222;DHT22;70691;52.492;13.420;2023-08-20T12:57:56;30.70;37.00
81222;DHT22;70691;52.492;13.420;2023-08-20T13:00:23;30.60;37.30
81222;DHT22;70691;52.492;13.420;2023-08-20T13:02:53;30.70;35.10
81222;DHT22;70691;52.492;13.420;2023-08-20T13:05:21;30.80;34.80
81222;DHT22;70691;52.492;13.420;2023-08-20T13:07:47;30.80;34.50
81222;DHT22;70691;52.492;13.420;2023-08-20T13:10:13;30.70;35.30
81222;DHT22;70691;52.492;13.420;2023-08-20T13:12:41;30.70;34.90
81222;DHT22;70691;52.492;13.420;2023-08-20T13:15:08;30.80;34.80
81222;DHT22;70691;52.492;13.420;2023-08-20T13:17:36;30.70;35.10
81222;DHT22;70691;52.492;13.420;2023-08-20T13:20:03;30.80;35.20
81222;DHT22;70691;52.492;13.420;2023-08-20T13:22:30;30.80;35.50
81222;DHT22;70691;52.492;13.420;2023-08-20T13:24:56;30.90;33.10
81222;DHT22;70691;52.492;13.420;2023-08-20T13:27:21;30.90;33.70
81222;DHT22;70691;52.492;13.420;2023-08-20T13:29:47;30.90;32.60
81222;DHT22;70691;52.492;13.420;2023-08-20T13:32:13;30.90;33.70
81222;DHT22;70691;52.492;13.420;2023-08-20T13:34:38;30.80;32.20
81222;DHT22;70691;52.492;13.420;2023-08-20T13:37:04;30.80;32.10
81222;DHT22;70691;52.492;13.420;2023-08-20T13:39:30;30.80;33.00
81222;DHT22;70691;52.492;13.420;2023-08-20T13:41:56;30.80;32.30
81222;DHT22;70691;52.492;13.420;2023-08-20T13:44:22;30.90;32.50
81222;DHT22;70691;52.492;13.420;2023-08-20T13:46:47;30.90;32.50
81222;DHT22;70691;52.492;13.420;2023-08-20T13:49:13;31.00;30.90
81222;DHT22;70691;52.492;13.420;2023-08-20T13:51:39;30.90;31.40
81222;DHT22;70691;52.492;13.420;2023-08-20T13:54:04;30.90;32.10
81222;DHT22;70691;52.492;13.420;2023-08-20T13:56:30;30.80;32.40
81222;DHT22;70691;52.492;13.420;2023-08-20T13:58:56;30.80;32.00
81222;DHT22;70691;52.492;13.420;2023-08-20T14:01:22;31.10;31.70
81222;DHT22;70691;52.492;13.420;2023-08-20T14:03:47;31.00;32.30
81222;DHT22;70691;52.492;13.420;2023-08-20T14:06:14;30.90;32.50
81222;DHT22;70691;52.492;13.420;2023-08-20T14:08:41;30.80;32.50
81222;DHT22;70691;52.492;13.420;2023-08-20T14:11:07;30.70;33.30
81222;DHT22;70691;52.492;13.420;2023-08-20T14:13:32;30.80;33.10
81222;DHT22;70691;52.492;13.420;2023-08-20T14:15:58;30.80;33.70
81222;DHT22;70691;52.492;13.420;2023-08-20T14:18:25;30.90;33.50
81222;DHT22;70691;52.492;13.420;2023-08-20T14:20:51;30.80;34.10
81222;DHT22;70691;52.492;13.420;2023-08-20T14:23:17;30.70;34.00
81222;DHT22;70691;52.492;13.420;2023-08-20T14:25:42;30.60;33.90
81222;DHT22;70691;52.492;13.420;2023-08-20T14:28:08;30.50;33.50
81222;DHT22;70691;52.492;13.420;2023-08-20T14:30:38;30.60;33.10
81222;DHT22;70691;52.492;13.420;2023-08-20T14:33:06;30.60;33.50
81222;DHT22;70691;52.492;13.420;2023-08-20T14:35:32;30.60;31.70
81222;DHT22;70691;52.492;13.420;2023-08-20T14:37:58;30.60;30.60
81222;DHT22;70691;52.492;13.420;2023-08-20T14:40:23;30.40;30.80
81222;DHT22;70691;52.492;13.420;2023-08-20T14:42:50;30.40;29.20
81222;DHT22;70691;52.492;13.420;2023-08-20T14:45:15;30.20;28.90
81222;DHT22;70691;52.492;13.420;2023-08-20T14:47:41;30.10;30.10
81222;DHT22;70691;52.492;13.420;2023-08-20T14:50:07;30.00;29.00
81222;DHT22;70691;52.492;13.420;2023-08-20T14:52:34;29.90;30.00
81222;DHT22;70691;52.492;13.420;2023-08-20T14:55:01;29.90;28.60
81222;DHT22;70691;52.492;13.420;2023-08-20T14:57:27;30.10;27.80
81222;DHT22;70691;52.492;13.420;2023-08-20T15:00:24;30.10;28.00
81222;DHT22;70691;52.492;13.420;2023-08-20T15:02:52;30.30;28.00
81222;DHT22;70691;52.492;13.420;2023-08-20T15:05:18;30.30;27.90
81222;DHT22;70691;52.492;13.420;2023-08-20T15:07:44;30.50;28.30
81222;DHT22;70691;52.492;13.420;2023-08-20T15:10:10;30.30;28.80
81222;DHT22;70691;52.492;13.420;2023-08-20T15:12:36;30.20;29.50
81222;DHT22;70691;52.492;13.420;2023-08-20T15:15:06;30.40;29.80
81222;DHT22;70691;52.492;13.420;2023-08-20T15:17:34;30.40;29.90
81222;DHT22;70691;52.492;13.420;2023-08-20T15:20:00;30.60;30.00
81222;DHT22;70691;52.492;13.420;2023-08-20T15:22:25;30.50;30.20
81222;DHT22;70691;52.492;13.420;2023-08-20T15:24:51;30.40;31.20
81222;DHT22;70691;52.492;13.420;2023-08-20T15:27:17;30.50;31.10
81222;DHT22;70691;52.492;13.420;2023-08-20T15:29:44;30.60;31.60